sensor_id;sensor_type;location;lat;lon;timestamp;pressure;altitude;pressure_sealevel;temperature;humidity
21096;BME280;10706;49.036;12.112;2023-04-06T00:01:39;98043.09;;;-1.77;79.86
21096;BME280;10706;49.036;12.112;2023-04-06T00:04:05;98050.25;;;-1.79;78.22
21096;BME280;10706;49.036;12.112;2023-04-06T00:06:32;98038.47;;;-1.83;79.63
21096;BME280;10706;49.036;12.112;2023-04-06T00:08:59;98042.69;;;-1.82;79.13
21096;BME280;10706;49.036;12.112;2023-04-06T00:11:25;98042.34;;;-1.87;78.14
21096;BME280;10706;49.036;12.112;2023-04-06T00:13:51;98036.59;;;-1.91;78.42
21096;BME280;10706;49.036;12.112;2023-04-06T00:16:17;98041.81;;;-1.91;78.44
21096;BME280;10706;49.036;12.112;2023-04-06T00:18:43;98042.09;;;-1.94;78.98
21096;BME280;10706;49.036;12.112;2023-04-06T00:21:12;98039.59;;;-1.86;78.89
21096;BME280;10706;49.036;12.112;2023-04-06T00:23:39;98043.44;;;-1.90;79.44
21096;BME280;10706;49.036;12.112;2023-04-06T00:26:05;98044.88;;;-1.96;79.54
21096;BME280;10706;49.036;12.112;2023-04-06T00:28:30;98033.50;;;-2.04;79.31
21096;BME280;10706;49.036;12.112;2023-04-06T00:30:56;98036.69;;;-2.10;79.42
21096;BME280;10706;49.036;12.112;2023-04-06T00:33:22;98048.44;;;-2.15;81.76
21096;BME280;10706;49.036;12.112;2023-04-06T00:35:48;98036.75;;;-2.20;81.41
21096;BME280;10706;49.036;12.112;2023-04-06T00:38:15;98037.06;;;-2.23;82.61
21096;BME280;10706;49.036;12.112;2023-04-06T00:40:41;98043.94;;;-2.22;83.26
21096;BME280;10706;49.036;12.112;2023-04-06T00:43:07;98044.19;;;-2.16;83.31
21096;BME280;10706;49.036;12.112;2023-04-06T00:45:37;98045.13;;;-2.17;82.07
21096;BME280;10706;49.036;12.112;2023-04-06T00:48:03;98036.75;;;-2.20;82.77
21096;BME280;10706;49.036;12.112;2023-04-06T00:50:30;98043.19;;;-2.15;83.08
21096;BME280;10706;49.036;12.112;2023-04-06T00:52:56;98035.94;;;-2.21;82.98
21096;BME280;10706;49.036;12.112;2023-04-06T00:55:22;98035.69;;;-2.27;83.58
21096;BME280;10706;49.036;12.112;2023-04-06T00:57:47;98035.00;;;-2.29;82.66
21096;BME280;10706;49.036;12.112;2023-04-06T01:00:16;98046.75;;;-2.33;83.23
21096;BME280;10706;49.036;12.112;2023-04-06T01:02:42;98038.75;;;-2.32;82.73
21096;BME280;10706;49.036;12.112;2023-04-06T01:05:08;98042.34;;;-2.33;83.68
21096;BME280;10706;49.036;12.112;2023-04-06T01:07:34;98044.94;;;-2.33;83.97
21096;BME280;10706;49.036;12.112;2023-04-06T01:09:59;98036.88;;;-2.40;82.62
21096;BME280;10706;49.036;12.112;2023-04-06T01:12:25;98037.69;;;-2.39;82.92
21096;BME280;10706;49.036;12.112;2023-04-06T01:14:51;98036.19;;;-2.42;83.78
21096;BME280;10706;49.036;12.112;2023-04-06T01:17:17;98033.88;;;-2.45;83.21
21096;BME280;10706;49.036;12.112;2023-04-06T01:19:43;98035.13;;;-2.49;82.64
21096;BME280;10706;49.036;12.112;2023-04-06T01:22:16;98031.84;;;-2.51;83.76
21096;BME280;10706;49.036;12.112;2023-04-06T01:24:42;98024.53;;;-2.47;83.27
21096;BME280;10706;49.036;12.112;2023-04-06T01:27:08;98024.81;;;-2.50;83.64
21096;BME280;10706;49.036;12.112;2023-04-06T01:29:33;98025.41;;;-2.57;84.33
21096;BME280;10706;49.036;12.112;2023-04-06T01:31:59;98022.34;;;-2.52;83.41
21096;BME280;10706;49.036;12.112;2023-04-06T01:34:25;98017.97;;;-2.51;84.16
21096;BME280;10706;49.036;12.112;2023-04-06T01:36:51;98018.22;;;-2.55;83.93
21096;BME280;10706;49.036;12.112;2023-04-06T01:39:17;98028.16;;;-2.58;83.53
21096;BME280;10706;49.036;12.112;2023-04-06T01:41:43;98030.63;;;-2.57;82.84
21096;BME280;10706;49.036;12.112;2023-04-06T01:44:08;98022.94;;;-2.58;83.80
21096;BME280;10706;49.036;12.112;2023-04-06T01:46:34;98023.59;;;-2.56;84.43
21096;BME280;10706;49.036;12.112;2023-04-06T01:49:00;98024.88;;;-2.60;82.92
21096;BME280;10706;49.036;12.112;2023-04-06T01:51:25;98021.03;;;-2.66;84.05
21096;BME280;10706;49.036;12.112;2023-04-06T01:53:52;98028.44;;;-2.61;85.01
21096;BME280;10706;49.036;12.112;2023-04-06T01:56:18;98025.28;;;-2.65;84.29
21096;BME280;10706;49.036;12.112;2023-04-06T01:58:43;98027.00;;;-2.74;84.88
21096;BME280;10706;49.036;12.112;2023-04-06T02:01:09;98016.81;;;-2.77;84.58
21096;BME280;10706;49.036;12.112;2023-04-06T02:03:35;98019.16;;;-2.74;84.68
21096;BME280;10706;49.036;12.112;2023-04-06T02:06:00;98025.44;;;-2.66;85.02
21096;BME280;10706;49.036;12.112;2023-04-06T02:08:26;98023.38;;;-2.72;85.63
21096;BME280;10706;49.036;12.112;2023-04-06T02:10:52;98020.78;;;-2.72;84.46
21096;BME280;10706;49.036;12.112;2023-04-06T02:13:17;98023.06;;;-2.60;84.24
21096;BME280;10706;49.036;12.112;2023-04-06T02:15:43;98020.44;;;-2.60;84.87
21096;BME280;10706;49.036;12.112;2023-04-06T02:18:09;98024.28;;;-2.54;85.41
21096;BME280;10706;49.036;12.112;2023-04-06T02:20:35;98022.94;;;-2.58;84.67
21096;BME280;10706;49.036;12.112;2023-04-06T02:23:01;98015.16;;;-2.50;85.24
21096;BME280;10706;49.036;12.112;2023-04-06T02:25:26;98015.91;;;-2.58;84.49
21096;BME280;10706;49.036;12.112;2023-04-06T02:27:53;98017.41;;;-2.55;85.60
21096;BME280;10706;49.036;12.112;2023-04-06T02:30:19;98013.53;;;-2.51;84.69
21096;BME280;10706;49.036;12.112;2023-04-06T02:32:45;98014.81;;;-2.55;85.94
21096;BME280;10706;49.036;12.112;2023-04-06T02:35:11;98018.81;;;-2.61;85.91
21096;BME280;10706;49.036;12.112;2023-04-06T02:37:36;98009.38;;;-2.71;85.33
21096;BME280;10706;49.036;12.112;2023-04-06T02:40:02;98011.84;;;-2.70;85.67
21096;BME280;10706;49.036;12.112;2023-04-06T02:42:28;98011.94;;;-2.62;86.45
21096;BME280;10706;49.036;12.112;2023-04-06T02:44:54;98008.38;;;-2.61;84.78
21096;BME280;10706;49.036;12.112;2023-04-06T02:47:20;98008.38;;;-2.61;84.45
21096;BME280;10706;49.036;12.112;2023-04-06T02:49:46;98011.97;;;-2.71;85.59
21096;BME280;10706;49.036;12.112;2023-04-06T02:52:11;98007.16;;;-2.76;86.38
21096;BME280;10706;49.036;12.112;2023-04-06T02:54:37;98003.06;;;-2.79;85.69
21096;BME280;10706;49.036;12.112;2023-04-06T02:57:03;98002.94;;;-2.77;86.94
21096;BME280;10706;49.036;12.112;2023-04-06T02:59:28;98005.41;;;-2.76;85.98
21096;BME280;10706;49.036;12.112;2023-04-06T03:01:54;97998.91;;;-2.71;86.70
21096;BME280;10706;49.036;12.112;2023-04-06T03:04:20;98005.78;;;-2.70;85.44
21096;BME280;10706;49.036;12.112;2023-04-06T03:06:48;98007.69;;;-2.63;86.05
21096;BME280;10706;49.036;12.112;2023-04-06T03:09:13;98001.34;;;-2.60;84.71
21096;BME280;10706;49.036;12.112;2023-04-06T03:11:39;98004.00;;;-2.70;85.49
21096;BME280;10706;49.036;12.112;2023-04-06T03:14:05;98009.47;;;-2.63;85.86
21096;BME280;10706;49.036;12.112;2023-04-06T03:16:31;98006.44;;;-2.68;86.32
21096;BME280;10706;49.036;12.112;2023-04-06T03:18:57;98010.72;;;-2.67;86.41
21096;BME280;10706;49.036;12.112;2023-04-06T03:21:22;98009.03;;;-2.59;86.66
21096;BME280;10706;49.036;12.112;2023-04-06T03:23:48;98007.25;;;-2.58;84.95
21096;BME280;10706;49.036;12.112;2023-04-06T03:26:16;98011.69;;;-2.68;85.37
21096;BME280;10706;49.036;12.112;2023-04-06T03:28:42;98010.31;;;-2.72;85.75
21096;BME280;10706;49.036;12.112;2023-04-06T03:31:07;98011.97;;;-2.71;86.02
21096;BME280;10706;49.036;12.112;2023-04-06T03:33:33;98021.31;;;-2.69;86.35
21096;BME280;10706;49.036;12.112;2023-04-06T03:35:59;98020.63;;;-2.71;85.59
21096;BME280;10706;49.036;12.112;2023-04-06T03:38:24;98019.16;;;-2.74;86.88
21096;BME280;10706;49.036;12.112;2023-04-06T03:40:50;98023.28;;;-2.81;86.29
21096;BME280;10706;49.036;12.112;2023-04-06T03:43:16;98013.69;;;-2.90;86.76
21096;BME280;10706;49.036;12.112;2023-04-06T03:45:41;98028.44;;;-2.99;86.21
21096;BME280;10706;49.036;12.112;2023-04-06T03:48:07;98027.47;;;-2.98;87.84
21096;BME280;10706;49.036;12.112;2023-04-06T03:50:33;98033.50;;;-2.97;87.15
21096;BME280;10706;49.036;12.112;2023-04-06T03:52:59;98032.03;;;-3.00;87.90
21096;BME280;10706;49.036;12.112;2023-04-06T03:55:24;98029.41;;;-3.00;87.35
21096;BME280;10706;49.036;12.112;2023-04-06T03:57:50;98029.69;;;-3.03;86.80
21096;BME280;10706;49.036;12.112;2023-04-06T04:00:16;98039.19;;;-3.02;87.91
21096;BME280;10706;49.036;12.112;2023-04-06T04:02:41;98039.31;;;-3.03;88.18
21096;BME280;10706;49.036;12.112;2023-04-06T04:05:08;98044.53;;;-3.03;87.50
21096;BME280;10706;49.036;12.112;2023-04-06T04:07:33;98047.97;;;-3.03;88.20
21096;BME280;10706;49.036;12.112;2023-04-06T04:09:59;98045.50;;;-2.95;87.35
21096;BME280;10706;49.036;12.112;2023-04-06T04:12:25;98042.88;;;-2.95;88.39
21096;BME280;10706;49.036;12.112;2023-04-06T04:14:50;98046.97;;;-2.92;86.52
21096;BME280;10706;49.036;12.112;2023-04-06T04:17:16;98044.09;;;-2.89;87.16
21096;BME280;10706;49.036;12.112;2023-04-06T04:19:42;98047.94;;;-2.93;86.92
21096;BME280;10706;49.036;12.112;2023-04-06T04:22:07;98047.66;;;-2.90;88.23
21096;BME280;10706;49.036;12.112;2023-04-06T04:24:33;98052.75;;;-2.88;86.40
21096;BME280;10706;49.036;12.112;2023-04-06T04:26:59;98051.91;;;-2.79;87.35
21096;BME280;10706;49.036;12.112;2023-04-06T04:29:26;98051.59;;;-2.66;88.21
21096;BME280;10706;49.036;12.112;2023-04-06T04:31:52;98056.66;;;-2.65;86.68
21096;BME280;10706;49.036;12.112;2023-04-06T04:34:18;98058.03;;;-2.70;86.59
21096;BME280;10706;49.036;12.112;2023-04-06T04:36:53;98055.16;;;-2.67;86.90
21096;BME280;10706;49.036;12.112;2023-04-06T04:39:19;98056.19;;;-2.50;86.46
21096;BME280;10706;49.036;12.112;2023-04-06T04:41:45;98059.25;;;-2.55;86.85
21096;BME280;10706;49.036;12.112;2023-04-06T04:44:11;98055.56;;;-2.62;87.49
21096;BME280;10706;49.036;12.112;2023-04-06T04:46:36;98054.88;;;-2.64;87.59
21096;BME280;10706;49.036;12.112;2023-04-06T04:49:02;98056.94;;;-2.68;88.22
21096;BME280;10706;49.036;12.112;2023-04-06T04:51:28;98046.91;;;-2.72;86.56
21096;BME280;10706;49.036;12.112;2023-04-06T04:53:54;98046.91;;;-2.72;87.63
21096;BME280;10706;49.036;12.112;2023-04-06T04:56:19;98057.34;;;-2.72;87.96
21096;BME280;10706;49.036;12.112;2023-04-06T04:58:45;98051.03;;;-2.70;86.98
21096;BME280;10706;49.036;12.112;2023-04-06T05:01:11;98055.06;;;-2.76;86.76
21096;BME280;10706;49.036;12.112;2023-04-06T05:03:37;98060.81;;;-2.82;86.76
21096;BME280;10706;49.036;12.112;2023-04-06T05:06:05;98055.91;;;-2.85;86.93
21096;BME280;10706;49.036;12.112;2023-04-06T05:08:31;98051.63;;;-2.86;88.34
21096;BME280;10706;49.036;12.112;2023-04-06T05:10:59;98058.75;;;-2.78;87.49
21096;BME280;10706;49.036;12.112;2023-04-06T05:13:24;98058.88;;;-2.70;87.82
21096;BME280;10706;49.036;12.112;2023-04-06T05:15:50;98064.25;;;-2.71;87.52
21096;BME280;10706;49.036;12.112;2023-04-06T05:18:16;98062.03;;;-2.76;86.56
21096;BME280;10706;49.036;12.112;2023-04-06T05:20:42;98071.13;;;-2.80;86.88
21096;BME280;10706;49.036;12.112;2023-04-06T05:23:08;98066.19;;;-2.74;86.82
21096;BME280;10706;49.036;12.112;2023-04-06T05:25:35;98067.94;;;-2.74;87.98
21096;BME280;10706;49.036;12.112;2023-04-06T05:28:01;98067.25;;;-2.66;86.93
21096;BME280;10706;49.036;12.112;2023-04-06T05:30:26;98068.09;;;-2.66;87.00
21096;BME280;10706;49.036;12.112;2023-04-06T05:32:52;98068.84;;;-2.56;86.88
21096;BME280;10706;49.036;12.112;2023-04-06T05:35:18;98068.75;;;-2.64;86.20
21096;BME280;10706;49.036;12.112;2023-04-06T05:37:45;98071.63;;;-2.57;86.76
21096;BME280;10706;49.036;12.112;2023-04-06T05:40:11;98072.16;;;-2.54;86.82
21096;BME280;10706;49.036;12.112;2023-04-06T05:42:41;98072.66;;;-2.40;87.29
21096;BME280;10706;49.036;12.112;2023-04-06T05:45:11;98078.41;;;-2.37;86.62
21096;BME280;10706;49.036;12.112;2023-04-06T05:47:42;98071.16;;;-2.15;86.90
21096;BME280;10706;49.036;12.112;2023-04-06T05:50:10;98071.38;;;-2.08;86.14
21096;BME280;10706;49.036;12.112;2023-04-06T05:52:36;98067.97;;;-1.91;85.92
21096;BME280;10706;49.036;12.112;2023-04-06T05:55:03;98081.75;;;-1.71;86.23
21096;BME280;10706;49.036;12.112;2023-04-06T05:57:29;98074.06;;;-1.54;85.19
21096;BME280;10706;49.036;12.112;2023-04-06T05:59:55;98076.25;;;-1.50;83.30
21096;BME280;10706;49.036;12.112;2023-04-06T06:02:21;98068.28;;;-1.40;83.06
21096;BME280;10706;49.036;12.112;2023-04-06T06:04:47;98074.88;;;-1.18;83.53
21096;BME280;10706;49.036;12.112;2023-04-06T06:07:14;98075.13;;;-1.03;82.52
21096;BME280;10706;49.036;12.112;2023-04-06T06:09:40;98065.09;;;-0.82;82.59
21096;BME280;10706;49.036;12.112;2023-04-06T06:12:06;98071.28;;;-0.65;82.20
21096;BME280;10706;49.036;12.112;2023-04-06T06:14:31;98071.88;;;-0.45;81.82
21096;BME280;10706;49.036;12.112;2023-04-06T06:16:57;98069.63;;;-0.31;81.22
21096;BME280;10706;49.036;12.112;2023-04-06T06:19:23;98066.91;;;-0.13;80.91
21096;BME280;10706;49.036;12.112;2023-04-06T06:21:49;98070.19;;;-0.11;79.68
21096;BME280;10706;49.036;12.112;2023-04-06T06:24:15;98076.00;;;0.09;79.92
21096;BME280;10706;49.036;12.112;2023-04-06T06:26:41;98075.69;;;0.12;79.16
21096;BME280;10706;49.036;12.112;2023-04-06T06:29:07;98077.38;;;0.37;78.72
21096;BME280;10706;49.036;12.112;2023-04-06T06:31:33;98073.13;;;0.61;78.35
21096;BME280;10706;49.036;12.112;2023-04-06T06:33:58;98076.09;;;0.74;77.99
21096;BME280;10706;49.036;12.112;2023-04-06T06:36:25;98073.66;;;0.81;76.82
21096;BME280;10706;49.036;12.112;2023-04-06T06:38:51;98070.00;;;0.82;76.96
21096;BME280;10706;49.036;12.112;2023-04-06T06:41:17;98077.41;;;0.87;77.33
21096;BME280;10706;49.036;12.112;2023-04-06T06:43:42;98085.78;;;0.99;75.61
21096;BME280;10706;49.036;12.112;2023-04-06T06:46:08;98083.31;;;0.97;74.75
21096;BME280;10706;49.036;12.112;2023-04-06T06:48:34;98082.81;;;1.10;74.25
21096;BME280;10706;49.036;12.112;2023-04-06T06:51:00;98087.41;;;1.16;74.10
21096;BME280;10706;49.036;12.112;2023-04-06T06:53:25;98081.00;;;1.27;74.37
21096;BME280;10706;49.036;12.112;2023-04-06T06:55:51;98081.44;;;1.47;74.91
21096;BME280;10706;49.036;12.112;2023-04-06T06:58:20;98080.44;;;1.56;72.47
21096;BME280;10706;49.036;12.112;2023-04-06T07:00:46;98087.88;;;1.84;71.57
21096;BME280;10706;49.036;12.112;2023-04-06T07:03:12;98089.50;;;1.93;71.83
21096;BME280;10706;49.036;12.112;2023-04-06T07:05:38;98080.78;;;1.92;71.00
21096;BME280;10706;49.036;12.112;2023-04-06T07:08:04;98088.94;;;2.06;69.29
21096;BME280;10706;49.036;12.112;2023-04-06T07:10:30;98088.66;;;2.32;69.37
21096;BME280;10706;49.036;12.112;2023-04-06T07:12:56;98091.19;;;2.25;70.19
21096;BME280;10706;49.036;12.112;2023-04-06T07:15:22;98087.69;;;2.33;68.65
21096;BME280;10706;49.036;12.112;2023-04-06T07:17:47;98093.63;;;2.27;68.72
21096;BME280;10706;49.036;12.112;2023-04-06T07:20:14;98085.44;;;2.45;68.84
21096;BME280;10706;49.036;12.112;2023-04-06T07:22:42;98086.44;;;2.90;66.40
21096;BME280;10706;49.036;12.112;2023-04-06T07:25:08;98088.44;;;2.88;66.98
21096;BME280;10706;49.036;12.112;2023-04-06T07:27:34;98087.59;;;3.10;66.98
21096;BME280;10706;49.036;12.112;2023-04-06T07:30:00;98094.72;;;3.25;66.90
21096;BME280;10706;49.036;12.112;2023-04-06T07:32:25;98091.00;;;3.49;65.70
21096;BME280;10706;49.036;12.112;2023-04-06T07:34:51;98094.28;;;3.36;64.23
21096;BME280;10706;49.036;12.112;2023-04-06T07:37:17;98087.66;;;3.40;64.44
21096;BME280;10706;49.036;12.112;2023-04-06T07:39:43;98092.31;;;3.53;63.04
21096;BME280;10706;49.036;12.112;2023-04-06T07:42:08;98087.47;;;3.57;61.39
21096;BME280;10706;49.036;12.112;2023-04-06T07:44:34;98084.09;;;3.63;61.98
21096;BME280;10706;49.036;12.112;2023-04-06T07:47:00;98084.19;;;3.84;60.90
21096;BME280;10706;49.036;12.112;2023-04-06T07:49:26;98092.09;;;3.84;61.23
21096;BME280;10706;49.036;12.112;2023-04-06T07:51:52;98092.09;;;3.84;61.07
21096;BME280;10706;49.036;12.112;2023-04-06T07:54:17;98085.44;;;3.88;60.71
21096;BME280;10706;49.036;12.112;2023-04-06T07:56:43;98088.34;;;3.94;61.13
21096;BME280;10706;49.036;12.112;2023-04-06T07:59:09;98093.47;;;3.95;61.39
21096;BME280;10706;49.036;12.112;2023-04-06T08:01:36;98085.06;;;4.06;61.64
21096;BME280;10706;49.036;12.112;2023-04-06T08:04:02;98084.22;;;4.21;60.40
21096;BME280;10706;49.036;12.112;2023-04-06T08:06:28;98084.75;;;4.31;59.14
21096;BME280;10706;49.036;12.112;2023-04-06T08:08:54;98097.69;;;4.62;58.63
21096;BME280;10706;49.036;12.112;2023-04-06T08:11:20;98096.44;;;4.58;58.24
21096;BME280;10706;49.036;12.112;2023-04-06T08:13:46;98093.66;;;4.66;58.49
21096;BME280;10706;49.036;12.112;2023-04-06T08:16:12;98083.03;;;4.81;55.99
21096;BME280;10706;49.036;12.112;2023-04-06T08:18:37;98092.66;;;4.89;57.58
21096;BME280;10706;49.036;12.112;2023-04-06T08:21:03;98082.50;;;4.93;56.13
21096;BME280;10706;49.036;12.112;2023-04-06T08:23:29;98095.28;;;5.11;56.51
21096;BME280;10706;49.036;12.112;2023-04-06T08:25:54;98086.66;;;5.02;54.97
21096;BME280;10706;49.036;12.112;2023-04-06T08:28:21;98088.78;;;5.13;56.98
21096;BME280;10706;49.036;12.112;2023-04-06T08:30:47;98091.06;;;5.44;55.26
21096;BME280;10706;49.036;12.112;2023-04-06T08:33:12;98082.44;;;5.36;53.63
21096;BME280;10706;49.036;12.112;2023-04-06T08:35:38;98084.41;;;5.55;54.25
21096;BME280;10706;49.036;12.112;2023-04-06T08:38:04;98085.25;;;5.62;53.81
21096;BME280;10706;49.036;12.112;2023-04-06T08:40:30;98075.59;;;5.83;52.58
21096;BME280;10706;49.036;12.112;2023-04-06T08:42:56;98086.94;;;5.70;52.16
21096;BME280;10706;49.036;12.112;2023-04-06T08:45:25;98085.44;;;5.61;52.92
21096;BME280;10706;49.036;12.112;2023-04-06T08:47:51;98082.25;;;5.72;51.93
21096;BME280;10706;49.036;12.112;2023-04-06T08:50:18;98086.38;;;5.81;52.90
21096;BME280;10706;49.036;12.112;2023-04-06T08:52:48;98080.63;;;5.71;52.70
21096;BME280;10706;49.036;12.112;2023-04-06T08:55:14;98080.75;;;5.91;51.32
21096;BME280;10706;49.036;12.112;2023-04-06T08:57:41;98076.72;;;6.02;52.32
21096;BME280;10706;49.036;12.112;2023-04-06T09:00:10;98072.94;;;6.25;54.12
21096;BME280;10706;49.036;12.112;2023-04-06T09:02:42;98078.66;;;6.21;50.08
21096;BME280;10706;49.036;12.112;2023-04-06T09:05:08;98077.63;;;6.16;49.54
21096;BME280;10706;49.036;12.112;2023-04-06T09:07:36;98078.28;;;6.38;50.64
21096;BME280;10706;49.036;12.112;2023-04-06T09:10:04;98081.03;;;6.65;50.33
21096;BME280;10706;49.036;12.112;2023-04-06T09:12:32;98072.25;;;6.71;49.41
21096;BME280;10706;49.036;12.112;2023-04-06T09:14:59;98075.50;;;6.73;50.24
21096;BME280;10706;49.036;12.112;2023-04-06T09:17:27;98077.78;;;6.76;50.53
21096;BME280;10706;49.036;12.112;2023-04-06T09:19:54;98074.69;;;6.79;51.93
21096;BME280;10706;49.036;12.112;2023-04-06T09:22:20;98068.41;;;7.07;49.40
21096;BME280;10706;49.036;12.112;2023-04-06T09:24:52;98072.69;;;7.34;49.64
21096;BME280;10706;49.036;12.112;2023-04-06T09:27:29;98077.97;;;7.41;47.27
21096;BME280;10706;49.036;12.112;2023-04-06T09:30:07;98062.41;;;7.58;46.34
21096;BME280;10706;49.036;12.112;2023-04-06T09:35:13;98053.75;;;7.83;45.00
21096;BME280;10706;49.036;12.112;2023-04-06T09:37:41;98058.09;;;7.70;45.73
21096;BME280;10706;49.036;12.112;2023-04-06T09:40:08;98060.38;;;7.47;43.01
21096;BME280;10706;49.036;12.112;2023-04-06T09:42:35;98061.63;;;7.44;40.02
21096;BME280;10706;49.036;12.112;2023-04-06T09:45:04;98056.72;;;7.28;42.42
21096;BME280;10706;49.036;12.112;2023-04-06T09:47:31;98046.69;;;7.43;43.30
21096;BME280;10706;49.036;12.112;2023-04-06T09:49:59;98049.53;;;7.62;43.69
21096;BME280;10706;49.036;12.112;2023-04-06T09:52:41;98045.88;;;7.49;42.92
21096;BME280;10706;49.036;12.112;2023-04-06T09:55:08;98043.56;;;7.79;43.05
21096;BME280;10706;49.036;12.112;2023-04-06T09:57:54;98051.63;;;8.11;42.47
21096;BME280;10706;49.036;12.112;2023-04-06T10:00:23;98045.97;;;8.33;41.25
21096;BME280;10706;49.036;12.112;2023-04-06T10:03:20;98042.91;;;8.36;40.53
21096;BME280;10706;49.036;12.112;2023-04-06T10:05:57;98041.16;;;8.16;41.38
21096;BME280;10706;49.036;12.112;2023-04-06T10:08:28;98037.59;;;8.36;40.93
21096;BME280;10706;49.036;12.112;2023-04-06T10:10:55;98040.63;;;8.40;40.86
21096;BME280;10706;49.036;12.112;2023-04-06T10:13:23;98034.84;;;8.56;40.74
21096;BME280;10706;49.036;12.112;2023-04-06T10:15:51;98036.53;;;8.44;38.31
21096;BME280;10706;49.036;12.112;2023-04-06T10:18:17;98030.19;;;8.38;39.47
21096;BME280;10706;49.036;12.112;2023-04-06T10:21:07;98026.63;;;8.57;41.35
21096;BME280;10706;49.036;12.112;2023-04-06T10:23:47;98032.91;;;8.70;36.75
21096;BME280;10706;49.036;12.112;2023-04-06T10:26:16;98027.88;;;8.55;36.50
21096;BME280;10706;49.036;12.112;2023-04-06T10:28:47;98019.31;;;8.46;37.92
21096;BME280;10706;49.036;12.112;2023-04-06T10:31:14;98019.84;;;8.62;39.38
21096;BME280;10706;49.036;12.112;2023-04-06T10:33:40;98011.69;;;8.56;37.27
21096;BME280;10706;49.036;12.112;2023-04-06T10:36:14;98009.97;;;8.69;40.08
21096;BME280;10706;49.036;12.112;2023-04-06T10:38:41;98007.34;;;8.87;38.61
21096;BME280;10706;49.036;12.112;2023-04-06T10:41:10;98009.09;;;9.00;38.26
21096;BME280;10706;49.036;12.112;2023-04-06T10:43:38;98006.28;;;8.95;39.01
21096;BME280;10706;49.036;12.112;2023-04-06T10:46:06;98005.19;;;9.03;37.77
21096;BME280;10706;49.036;12.112;2023-04-06T10:48:44;97999.88;;;9.21;37.46
21096;BME280;10706;49.036;12.112;2023-04-06T10:51:13;97994.72;;;9.26;37.80
21096;BME280;10706;49.036;12.112;2023-04-06T10:53:42;98001.63;;;9.52;40.15
21096;BME280;10706;49.036;12.112;2023-04-06T10:56:14;98009.41;;;9.91;36.61
21096;BME280;10706;49.036;12.112;2023-04-06T10:58:48;98000.34;;;9.92;35.53
21096;BME280;10706;49.036;12.112;2023-04-06T11:01:16;97998.31;;;9.39;39.65
21096;BME280;10706;49.036;12.112;2023-04-06T11:03:50;98001.94;;;9.44;38.71
21096;BME280;10706;49.036;12.112;2023-04-06T11:06:25;98005.22;;;9.21;35.73
21096;BME280;10706;49.036;12.112;2023-04-06T11:08:55;97990.19;;;8.83;35.28
21096;BME280;10706;49.036;12.112;2023-04-06T11:11:23;97987.63;;;9.20;34.97
21096;BME280;10706;49.036;12.112;2023-04-06T11:13:56;97993.91;;;9.26;35.30
21096;BME280;10706;49.036;12.112;2023-04-06T11:16:32;97993.69;;;9.46;37.11
21096;BME280;10706;49.036;12.112;2023-04-06T11:19:01;97981.53;;;9.13;35.46
21096;BME280;10706;49.036;12.112;2023-04-06T11:24:24;97973.91;;;10.21;37.07
21096;BME280;10706;49.036;12.112;2023-04-06T11:26:58;97967.59;;;10.34;36.91
21096;BME280;10706;49.036;12.112;2023-04-06T11:29:29;97971.03;;;9.92;35.12
21096;BME280;10706;49.036;12.112;2023-04-06T11:32:04;97968.47;;;10.16;35.56
21096;BME280;10706;49.036;12.112;2023-04-06T11:34:36;97959.09;;;10.55;36.69
21096;BME280;10706;49.036;12.112;2023-04-06T11:37:07;97957.94;;;10.63;35.93
21096;BME280;10706;49.036;12.112;2023-04-06T11:39:39;97959.94;;;10.91;35.81
21096;BME280;10706;49.036;12.112;2023-04-06T11:42:06;97952.75;;;11.15;35.62
21096;BME280;10706;49.036;12.112;2023-04-06T11:44:42;97949.03;;;10.93;34.36
21096;BME280;10706;49.036;12.112;2023-04-06T11:47:12;97947.50;;;10.97;35.21
21096;BME280;10706;49.036;12.112;2023-04-06T11:49:39;97941.69;;;11.12;35.36
21096;BME280;10706;49.036;12.112;2023-04-06T11:52:27;97931.50;;;11.61;34.60
21096;BME280;10706;49.036;12.112;2023-04-06T11:54:54;97927.19;;;11.60;36.24
21096;BME280;10706;49.036;12.112;2023-04-06T11:57:22;97929.22;;;11.53;33.37
21096;BME280;10706;49.036;12.112;2023-04-06T11:59:51;97929.00;;;11.31;34.07
21096;BME280;10706;49.036;12.112;2023-04-06T12:02:17;97924.44;;;11.55;34.26
21096;BME280;10706;49.036;12.112;2023-04-06T12:04:43;97925.34;;;11.60;32.70
21096;BME280;10706;49.036;12.112;2023-04-06T12:07:10;97928.47;;;11.57;34.55
21096;BME280;10706;49.036;12.112;2023-04-06T12:09:35;97923.03;;;12.38;30.72
21096;BME280;10706;49.036;12.112;2023-04-06T12:12:03;97917.59;;;13.40;30.77
21096;BME280;10706;49.036;12.112;2023-04-06T12:14:29;97918.75;;;14.20;29.30
21096;BME280;10706;49.036;12.112;2023-04-06T12:16:57;97915.38;;;14.03;28.33
21096;BME280;10706;49.036;12.112;2023-04-06T12:19:23;97906.19;;;14.26;28.98
21096;BME280;10706;49.036;12.112;2023-04-06T12:21:55;97914.63;;;14.08;31.42
21096;BME280;10706;49.036;12.112;2023-04-06T12:24:23;97900.53;;;14.55;26.74
21096;BME280;10706;49.036;12.112;2023-04-06T12:26:49;97904.06;;;14.93;27.88
21096;BME280;10706;49.036;12.112;2023-04-06T12:29:15;97902.97;;;16.15;25.88
21096;BME280;10706;49.036;12.112;2023-04-06T12:31:41;97903.03;;;14.99;27.13
21096;BME280;10706;49.036;12.112;2023-04-06T12:34:08;97904.06;;;14.93;24.89
21096;BME280;10706;49.036;12.112;2023-04-06T12:36:34;97896.69;;;15.84;26.31
21096;BME280;10706;49.036;12.112;2023-04-06T12:39:00;97895.66;;;15.90;26.01
21096;BME280;10706;49.036;12.112;2023-04-06T12:41:27;97898.13;;;16.38;26.09
21096;BME280;10706;49.036;12.112;2023-04-06T12:43:53;97892.00;;;18.14;23.74
21096;BME280;10706;49.036;12.112;2023-04-06T12:46:19;97893.75;;;18.68;21.77
21096;BME280;10706;49.036;12.112;2023-04-06T12:48:45;97894.75;;;18.43;22.63
21096;BME280;10706;49.036;12.112;2023-04-06T12:51:11;97892.53;;;18.16;22.65
21096;BME280;10706;49.036;12.112;2023-04-06T12:53:37;97892.84;;;18.09;23.01
21096;BME280;10706;49.036;12.112;2023-04-06T12:56:14;97890.59;;;16.65;23.22
21096;BME280;10706;49.036;12.112;2023-04-06T12:58:41;97879.56;;;16.87;25.21